Time;durP1;ratioP1;P1;durP2;ratioP2;P2;SDS_P1;SDS_P2;PMS_P1;PMS_P2;Temp;Humidity;BMP_temperature;BMP_pressure;BME280_temperature;BME280_humidity;BME280_pressure;Samples;Min_cycle;Max_cycle;Signal;HPM_P1;HPM_P2
2023/09/28 00:02:56;;;;;;;2.60;1.50;;;;;;;19.47;75.39;101347.19;5054041;27;96774;-27
2023/09/28 00:05:21;;;;;;;3.13;1.52;;;;;;;19.44;75.63;101349.31;5053718;27;96809;-27
2023/09/28 00:07:49;;;;;;;4.60;1.90;;;;;;;19.49;75.62;101356.13;5035334;27;98879;-27
2023/09/28 00:10:16;;;;;;;6.57;1.70;;;;;;;19.49;76.34;101364.38;5035083;27;100902;-28
2023/09/28 00:12:45;;;;;;;3.40;1.88;;;;;;;19.50;75.95;101365.25;5035467;27;96682;-27
2023/09/28 00:15:11;;;;;;;3.50;1.83;;;;;;;19.46;76.13;101359.16;5035596;27;96756;-27
2023/09/28 00:17:38;;;;;;;3.20;1.75;;;;;;;19.44;75.90;101358.44;5034780;27;101147;-27
2023/09/28 00:20:17;;;;;;;4.88;1.55;;;;;;;19.50;76.26;101354.28;5034915;27;101495;-27
2023/09/28 00:22:44;;;;;;;3.35;1.90;;;;;;;19.51;75.92;101356.00;5053237;27;96756;-27
2023/09/28 00:25:11;;;;;;;4.22;2.15;;;;;;;19.45;76.30;101345.56;5034961;27;97473;-27
2023/09/28 00:27:43;;;;;;;2.60;1.40;;;;;;;19.47;76.62;101358.16;5034844;27;101025;-27
2023/09/28 00:30:13;;;;;;;2.25;1.60;;;;;;;19.45;76.91;101362.03;5034730;27;99130;-27
2023/09/28 00:32:39;;;;;;;2.90;1.58;;;;;;;19.42;77.12;101371.44;5035104;27;97079;-27
2023/09/28 00:35:06;;;;;;;3.28;1.90;;;;;;;19.40;77.07;101370.72;5035071;27;96864;-26
2023/09/28 00:37:32;;;;;;;4.75;1.58;;;;;;;19.35;77.56;101367.50;5034656;27;101114;-28
2023/09/28 00:39:58;;;;;;;2.42;1.70;;;;;;;19.37;77.47;101373.72;5035250;27;100848;-27
2023/09/28 00:42:24;;;;;;;3.20;1.70;;;;;;;19.30;78.52;101367.91;5034619;27;96832;-27
2023/09/28 00:44:51;;;;;;;2.30;1.25;;;;;;;19.31;77.96;101369.66;5053193;27;96913;-27
2023/09/28 00:47:18;;;;;;;2.20;1.30;;;;;;;19.31;77.97;101374.31;5052248;27;98097;-27
2023/09/28 00:49:44;;;;;;;4.20;1.73;;;;;;;19.34;77.83;101373.16;5052998;27;97845;-26
2023/09/28 00:52:16;;;;;;;3.15;1.67;;;;;;;19.31;77.47;101372.41;5052370;27;96497;-26
2023/09/28 00:54:43;;;;;;;2.90;1.67;;;;;;;19.26;77.85;101368.38;5034760;27;96671;-27
2023/09/28 00:57:09;;;;;;;5.03;1.88;;;;;;;19.22;78.16;101372.38;5034445;27;101456;-26
2023/09/28 00:59:34;;;;;;;3.63;1.80;;;;;;;19.19;78.53;101380.91;5052973;27;97894;-27
2023/09/28 01:02:00;;;;;;;4.38;2.00;;;;;;;19.17;78.80;101380.16;5052844;27;96700;-27
2023/09/28 01:04:26;;;;;;;3.22;1.83;;;;;;;19.13;78.79;101387.78;5053115;27;96785;-26
2023/09/28 01:06:51;;;;;;;3.38;2.15;;;;;;;19.13;78.58;101393.28;5052857;27;97890;-27
2023/09/28 01:09:17;;;;;;;4.22;2.17;;;;;;;19.06;79.53;101394.84;5052748;27;97863;-27
2023/09/28 01:11:43;;;;;;;3.15;1.77;;;;;;;19.04;79.62;101400.50;5052203;27;96703;-26
2023/09/28 01:14:08;;;;;;;3.15;1.77;;;;;;;18.98;79.63;101398.28;5052727;27;96738;-27
2023/09/28 01:16:34;;;;;;;3.00;1.88;;;;;;;19.00;80.08;101411.88;5052655;27;97380;-27
2023/09/28 01:18:59;;;;;;;4.95;1.88;;;;;;;18.89;79.96;101393.59;5052453;27;99060;-27
2023/09/28 01:21:25;;;;;;;2.83;1.65;;;;;;;18.88;80.58;101397.34;5052853;27;96758;-27
2023/09/28 01:23:51;;;;;;;4.40;1.85;;;;;;;18.86;80.91;101407.59;5052886;27;96787;-26
2023/09/28 01:26:16;;;;;;;3.88;1.88;;;;;;;18.83;80.52;101406.00;5033658;27;101095;-26
2023/09/28 01:28:42;;;;;;;5.10;1.95;;;;;;;18.85;81.21;101405.84;5034385;27;100916;-26
2023/09/28 01:31:08;;;;;;;3.15;1.75;;;;;;;18.84;80.98;101406.84;5052733;27;96681;-28
2023/09/28 01:33:33;;;;;;;3.85;2.00;;;;;;;18.81;81.60;101387.91;5052364;27;96800;-26
2023/09/28 01:35:58;;;;;;;3.85;1.90;;;;;;;18.77;81.37;101386.44;5051687;27;99515;-27
2023/09/28 01:38:30;;;;;;;6.28;2.20;;;;;;;18.85;81.03;101405.84;5052135;27;97882;-27
2023/09/28 01:40:55;;;;;;;3.38;1.77;;;;;;;18.82;81.26;101400.63;5052368;27;96629;-27
2023/09/28 01:43:21;;;;;;;4.85;2.00;;;;;;;18.76;81.66;101399.31;5033899;27;96828;-27
2023/09/28 01:45:46;;;;;;;8.93;2.50;;;;;;;18.73;81.73;101405.00;5051630;27;99602;-27
2023/09/28 01:48:12;;;;;;;2.97;1.60;;;;;;;18.67;81.50;101405.56;5052124;27;99576;-27
2023/09/28 01:50:38;;;;;;;4.07;1.80;;;;;;;18.68;82.02;101416.38;5052226;27;98014;-26
2023/09/28 01:53:03;;;;;;;3.75;2.00;;;;;;;18.66;81.84;101415.66;5052841;27;96789;-27
2023/09/28 01:55:29;;;;;;;5.15;1.63;;;;;;;18.60;82.46;101418.94;5051589;27;98965;-27
2023/09/28 01:57:54;;;;;;;3.80;1.73;;;;;;;18.62;82.73;101425.16;5052535;27;97358;-28
2023/09/28 02:00:21;;;;;;;4.18;1.92;;;;;;;18.58;81.89;101417.31;5051784;27;96541;-26
2023/09/28 02:02:47;;;;;;;3.70;1.80;;;;;;;18.57;82.00;101429.31;5052058;27;96792;-26
2023/09/28 02:05:17;;;;;;;3.08;1.65;;;;;;;18.51;82.21;101429.84;5034708;27;100922;-27
2023/09/28 02:07:44;;;;;;;5.05;1.73;;;;;;;18.53;81.98;101439.66;5037103;27;101253;-27
2023/09/28 02:10:10;;;;;;;5.00;1.73;;;;;;;18.47;82.81;101442.94;5037068;27;96655;-27
2023/09/28 02:12:39;;;;;;;5.40;1.38;;;;;;;18.49;82.25;101435.44;5055568;27;96871;-27
2023/09/28 02:15:06;;;;;;;3.80;1.10;;;;;;;18.52;82.08;101426.06;5037116;27;101001;-28
2023/09/28 02:17:32;;;;;;;3.25;1.38;;;;;;;18.49;81.85;101423.59;5037396;27;100774;-28
2023/09/28 02:19:57;;;;;;;2.65;1.40;;;;;;;18.48;82.34;101432.84;5055315;27;96498;-27
2023/09/28 02:22:23;;;;;;;3.10;1.65;;;;;;;18.46;81.96;101419.25;5055183;27;96889;-27
2023/09/28 02:24:50;;;;;;;2.42;1.15;;;;;;;18.49;82.17;101426.34;5054570;27;99235;-26
2023/09/28 02:27:17;;;;;;;2.13;1.23;;;;;;;18.44;81.87;101418.50;5036791;27;101105;-26
2023/09/28 02:29:44;;;;;;;1.98;1.27;;;;;;;18.46;81.56;101422.84;5037061;27;96624;-27
2023/09/28 02:32:09;;;;;;;3.55;1.35;;;;;;;18.35;81.82;101413.81;5055272;27;96810;-27
2023/09/28 02:34:35;;;;;;;3.55;1.17;;;;;;;18.37;81.72;101414.56;5055204;27;98390;-27
2023/09/28 02:37:01;;;;;;;3.13;1.13;;;;;;;18.35;81.97;101425.66;5054645;27;97934;-27
2023/09/28 02:39:28;;;;;;;3.33;1.20;;;;;;;18.32;82.27;101414.94;5036767;27;96523;-27
2023/09/28 02:41:54;;;;;;;5.22;1.08;;;;;;;18.32;81.96;101422.31;5037165;27;96812;-27
2023/09/28 02:44:19;;;;;;;3.20;1.20;;;;;;;18.32;82.41;101422.31;5054976;27;97479;-27
2023/09/28 02:46:45;;;;;;;2.15;1.10;;;;;;;18.28;82.30;101426.31;5053754;27;99175;-27
2023/09/28 02:49:10;;;;;;;3.70;1.27;;;;;;;18.30;82.12;101433.41;5054704;27;96455;-27
2023/09/28 02:51:36;;;;;;;2.72;1.17;;;;;;;18.28;82.36;101440.00;5054738;27;96806;-27
2023/09/28 02:54:01;;;;;;;2.60;1.08;;;;;;;18.20;82.68;101435.19;5054876;27;98049;-26
2023/09/28 02:56:27;;;;;;;4.15;1.38;;;;;;;18.19;82.29;101442.56;5054846;27;97832;-26
2023/09/28 02:58:53;;;;;;;3.40;1.42;;;;;;;18.13;82.57;101444.94;5055046;27;96516;-26
2023/09/28 03:01:21;;;;;;;8.05;1.50;;;;;;;18.11;82.78;101447.78;5054870;27;96715;-28
2023/09/28 03:03:46;;;;;;;4.15;1.15;;;;;;;18.10;83.17;101451.53;5054531;27;98037;-27
2023/09/28 03:06:12;;;;;;;5.55;1.23;;;;;;;18.09;82.93;101466.25;5054719;27;97276;-29
2023/09/28 03:08:37;;;;;;;3.25;1.48;;;;;;;18.06;83.27;101466.50;5054575;27;96492;-26
2023/09/28 03:11:03;;;;;;;1.70;1.10;;;;;;;18.05;83.33;101481.22;5054726;27;96807;-26
2023/09/28 03:13:28;;;;;;;2.92;1.23;;;;;;;17.95;83.61;101483.00;5053918;27;99294;-27
2023/09/28 03:15:54;;;;;;;2.47;1.10;;;;;;;17.88;83.65;101489.97;5054176;27;97844;-27
2023/09/28 03:18:20;;;;;;;3.28;1.00;;;;;;;17.82;83.10;101494.94;5054401;27;96630;-27
2023/09/28 03:20:45;;;;;;;2.40;0.80;;;;;;;17.86;82.79;101502.94;5054705;27;96892;-27
2023/09/28 03:23:13;;;;;;;7.38;1.40;;;;;;;17.88;83.25;101517.38;5054163;27;97235;-26
2023/09/28 03:25:39;;;;;;;8.25;1.20;;;;;;;17.88;82.73;101511.91;5054130;27;98842;-27
2023/09/28 03:28:06;;;;;;;9.35;1.50;;;;;;;17.77;82.21;101510.84;5036140;27;96550;-27
2023/09/28 03:30:31;;;;;;;6.05;1.10;;;;;;;17.75;82.26;101510.09;5036515;27;96969;-28
2023/09/28 03:32:57;;;;;;;4.28;1.00;;;;;;;17.69;81.87;101498.78;5054222;27;97973;-26
2023/09/28 03:35:22;;;;;;;7.13;1.02;;;;;;;17.73;81.79;101511.22;5053630;27;99762;-26
2023/09/28 03:37:53;;;;;;;3.05;1.17;;;;;;;17.70;81.66;101503.28;5053648;27;96777;-27
2023/09/28 03:40:19;;;;;;;6.05;1.25;;;;;;;17.73;81.69;101509.38;5035891;27;97090;-26
2023/09/28 03:42:49;;;;;;;9.52;1.38;;;;;;;17.65;82.12;101500.91;5035685;27;101318;-26
2023/09/28 03:45:24;;;;;;;5.55;1.05;;;;;;;17.67;82.05;101503.53;5035543;27;101002;-27
2023/09/28 03:47:52;;;;;;;17.25;2.35;;;;;;;17.63;81.83;101492.78;5054120;27;96588;-27
2023/09/28 03:50:19;;;;;;;5.35;1.10;;;;;;;17.63;82.09;101519.31;5035736;27;96984;-26
2023/09/28 03:52:44;;;;;;;5.90;1.33;;;;;;;17.61;81.85;101510.34;5019017;27;101271;-27
2023/09/28 03:55:12;;;;;;;5.80;1.25;;;;;;;17.64;81.67;101526.56;5054516;27;97238;-26
2023/09/28 03:57:38;;;;;;;2.38;0.85;;;;;;;17.59;81.94;101517.81;5035518;27;96574;-26
2023/09/28 04:00:06;;;;;;;8.15;1.33;;;;;;;17.67;81.98;101522.69;5035483;27;97774;-27
2023/09/28 04:02:32;;;;;;;5.07;1.50;;;;;;;17.65;81.91;101522.81;5052863;27;99016;-27
2023/09/28 04:04:57;;;;;;;7.00;1.00;;;;;;;17.64;81.50;101521.09;5053578;27;97228;-27
2023/09/28 04:07:23;;;;;;;8.15;1.38;;;;;;;17.66;81.35;101530.03;5053880;27;96532;-26
2023/09/28 04:09:48;;;;;;;8.40;1.67;;;;;;;17.63;81.45;101530.28;5053993;27;96715;-27
2023/09/28 04:12:15;;;;;;;4.80;0.98;;;;;;;17.67;81.59;101541.88;5035242;27;101445;-27
2023/09/28 04:14:40;;;;;;;4.15;1.35;;;;;;;17.59;81.75;101523.28;5035261;27;100798;-27
2023/09/28 04:17:05;;;;;;;3.17;1.00;;;;;;;17.59;81.56;101537.91;5053897;27;96610;-26
2023/09/28 04:19:31;;;;;;;5.75;1.10;;;;;;;17.57;81.88;101549.97;5054006;27;96768;-27
2023/09/28 04:21:57;;;;;;;7.03;1.20;;;;;;;17.54;81.70;101547.47;5053448;27;97953;-27
2023/09/28 04:24:22;;;;;;;5.18;1.10;;;;;;;17.51;81.66;101536.75;5053418;27;97730;-27
2023/09/28 04:26:47;;;;;;;3.97;0.88;;;;;;;17.51;82.01;101548.56;5052842;27;96472;-27
2023/09/28 04:29:13;;;;;;;5.18;1.20;;;;;;;17.43;81.67;101536.50;5053015;27;96780;-27
2023/09/28 04:31:40;;;;;;;2.67;0.65;;;;;;;17.49;81.55;101553.31;5053082;27;98834;-26
2023/09/28 04:34:07;;;;;;;6.32;1.38;;;;;;;17.47;81.45;101563.53;5034777;27;99853;-27
2023/09/28 04:36:32;;;;;;;5.13;1.00;;;;;;;17.48;81.33;101576.22;5034831;27;96721;-27
2023/09/28 04:38:58;;;;;;;3.85;0.95;;;;;;;17.49;81.70;101569.72;5053232;27;96716;-27
2023/09/28 04:41:23;;;;;;;5.47;1.20;;;;;;;17.43;81.70;101563.91;5053158;27;97910;-27
2023/09/28 04:43:49;;;;;;;5.57;1.10;;;;;;;17.40;81.33;101568.63;5053588;27;98059;-27
2023/09/28 04:46:14;;;;;;;7.10;1.45;;;;;;;17.33;81.95;101572.84;5052697;27;96654;-26
2023/09/28 04:48:39;;;;;;;5.80;1.40;;;;;;;17.28;81.91;101564.13;5053207;27;96822;-27
2023/09/28 04:51:05;;;;;;;6.95;1.00;;;;;;;17.23;81.77;101570.91;5052519;27;98009;-26
2023/09/28 04:53:30;;;;;;;5.93;1.40;;;;;;;17.23;82.19;101577.25;5053160;27;97925;-28
2023/09/28 04:55:56;;;;;;;3.72;1.35;;;;;;;17.22;81.79;101581.00;5053262;27;96514;-27
2023/09/28 04:58:21;;;;;;;9.88;1.65;;;;;;;17.19;81.77;101594.94;5053105;27;96808;-28
2023/09/28 05:00:47;;;;;;;9.52;1.30;;;;;;;17.19;82.17;101581.25;5052629;27;97383;-26
2023/09/28 05:03:12;;;;;;;7.85;1.17;;;;;;;17.14;81.74;101580.75;5052947;27;98098;-27
2023/09/28 05:05:37;;;;;;;5.90;1.00;;;;;;;17.18;82.18;101595.91;5052607;27;96646;-27
2023/09/28 05:08:03;;;;;;;10.82;1.45;;;;;;;17.14;82.27;101602.66;5053416;27;96832;-26
2023/09/28 05:10:29;;;;;;;4.97;1.02;;;;;;;17.13;82.45;101593.53;5034320;27;100867;-28
2023/09/28 05:12:55;;;;;;;8.13;1.33;;;;;;;17.12;82.05;101585.47;5034185;27;100991;-27
2023/09/28 05:15:20;;;;;;;6.10;1.20;;;;;;;17.13;82.42;101592.66;5033880;27;96494;-27
2023/09/28 05:17:45;;;;;;;7.22;1.45;;;;;;;17.10;82.31;101598.38;5052004;27;96785;-32
2023/09/28 05:20:11;;;;;;;5.30;1.08;;;;;;;17.03;82.40;101595.25;5031719;27;100762;-30
2023/09/28 05:22:36;;;;;;;11.57;1.23;;;;;;;16.98;82.55;101601.06;5050692;27;99934;-27
2023/09/28 05:25:06;;;;;;;4.55;1.15;;;;;;;16.98;82.54;101598.34;5051451;27;96581;-31
2023/09/28 05:27:32;;;;;;;13.07;1.70;;;;;;;16.97;82.53;101593.88;5033122;27;96856;-26
2023/09/28 05:29:57;;;;;;;5.00;1.02;;;;;;;16.94;82.51;101593.22;5032790;27;101004;-27
2023/09/28 05:32:23;;;;;;;5.10;1.13;;;;;;;16.98;82.80;101592.00;5051555;27;99031;-26
2023/09/28 05:34:48;;;;;;;7.43;1.20;;;;;;;16.93;82.65;101591.47;5052061;27;96712;-27
2023/09/28 05:37:14;;;;;;;3.38;1.52;;;;;;;16.94;82.46;101591.34;5034033;27;96979;-27
2023/09/28 05:39:39;;;;;;;4.53;1.17;;;;;;;16.96;82.78;101597.56;5033155;27;101248;-27
2023/09/28 05:42:05;;;;;;;7.85;1.70;;;;;;;16.90;82.76;101608.09;5052307;27;97753;-28
2023/09/28 05:44:31;;;;;;;4.90;1.05;;;;;;;16.87;82.67;101603.75;5052229;27;96547;-27
2023/09/28 05:46:57;;;;;;;5.45;1.13;;;;;;;16.90;82.54;101617.22;5051898;27;96762;-26
2023/09/28 05:49:22;;;;;;;11.20;1.08;;;;;;;16.84;83.10;101608.59;5052612;27;97424;-27
2023/09/28 05:51:48;;;;;;;8.30;1.17;;;;;;;16.80;82.73;101607.94;5052012;27;99150;-27
2023/09/28 05:54:13;;;;;;;9.02;1.30;;;;;;;16.75;83.31;101618.34;5052313;27;96418;-26
2023/09/28 05:56:39;;;;;;;5.53;1.25;;;;;;;16.77;83.46;101617.22;5052595;27;96770;-27
2023/09/28 05:59:04;;;;;;;7.07;1.50;;;;;;;16.76;82.94;101617.34;5052128;27;98005;-27
2023/09/28 06:01:30;;;;;;;4.82;1.15;;;;;;;16.77;83.26;101636.38;5051849;27;98729;-26
2023/09/28 06:03:55;;;;;;;6.07;1.08;;;;;;;16.70;83.33;101637.81;5051223;27;96900;-27
2023/09/28 06:06:22;;;;;;;9.52;2.03;;;;;;;16.74;83.28;101638.47;5052053;27;96911;-27
2023/09/28 06:08:47;;;;;;;4.95;1.13;;;;;;;16.63;83.30;101622.84;5016766;27;101254;-27
2023/09/28 06:11:14;;;;;;;11.40;1.40;;;;;;;16.73;83.30;101643.09;5051719;27;99126;-27
2023/09/28 06:13:41;;;;;;;5.63;1.20;;;;;;;16.73;83.85;101647.66;5033623;27;97071;-27
2023/09/28 06:16:06;;;;;;;10.27;1.83;;;;;;;16.68;83.08;101637.06;5033674;27;96872;-27
2023/09/28 06:18:32;;;;;;;15.65;1.80;;;;;;;16.69;83.62;101627.88;5051833;27;97542;-26
2023/09/28 06:20:57;;;;;;;5.47;1.10;;;;;;;16.65;83.50;101626.34;5033837;27;99793;-27
2023/09/28 06:23:22;;;;;;;4.30;1.20;;;;;;;16.63;83.65;101630.19;5052132;27;96431;-27
2023/09/28 06:25:48;;;;;;;7.63;1.17;;;;;;;16.74;83.70;101641.22;5051820;27;96872;-27
2023/09/28 06:28:13;;;;;;;7.13;1.40;;;;;;;16.74;83.52;101647.56;5051095;27;99487;-27
2023/09/28 06:30:38;;;;;;;3.30;0.98;;;;;;;16.79;83.31;101660.94;5033200;27;98703;-27
2023/09/28 06:33:04;;;;;;;5.45;1.52;;;;;;;16.77;83.84;101650.06;5051804;27;96481;-26
2023/09/28 06:35:30;;;;;;;9.85;1.48;;;;;;;16.81;83.13;101661.69;5051581;27;96826;-26
2023/09/28 06:37:55;;;;;;;7.70;1.55;;;;;;;16.84;83.15;101655.13;5051545;27;97430;-27
2023/09/28 06:40:21;;;;;;;4.63;1.13;;;;;;;16.85;83.48;101670.53;5033034;27;99961;-27
2023/09/28 06:42:46;;;;;;;6.30;1.10;;;;;;;16.88;82.87;101671.19;5051321;27;96518;-27
2023/09/28 06:45:12;;;;;;;10.40;1.25;;;;;;;16.91;83.24;101681.03;5052092;27;96829;-26
2023/09/28 06:47:37;;;;;;;6.28;1.33;;;;;;;16.87;83.21;101680.38;5051446;27;97872;-27
2023/09/28 06:50:04;;;;;;;8.23;0.85;;;;;;;16.94;83.17;101687.13;5051649;27;97771;-26
2023/09/28 06:52:30;;;;;;;5.25;1.00;;;;;;;16.96;83.38;101679.69;5054151;27;96594;-27
2023/09/28 06:54:55;;;;;;;9.43;1.55;;;;;;;16.95;82.96;101672.47;5036556;27;96769;-27
2023/09/28 06:57:21;;;;;;;13.23;1.80;;;;;;;17.03;82.24;101673.75;5054492;27;99258;-27
2023/09/28 06:59:46;;;;;;;6.82;1.30;;;;;;;17.07;82.12;101680.75;5054269;27;99144;-27
2023/09/28 07:02:12;;;;;;;7.40;1.30;;;;;;;17.08;82.77;101666.94;5054729;27;96598;-27
2023/09/28 07:04:37;;;;;;;5.38;0.93;;;;;;;17.11;82.39;101671.31;5054336;27;96798;-27
2023/09/28 07:07:02;;;;;;;8.35;1.27;;;;;;;17.11;83.01;101674.03;5054702;27;97952;-27
2023/09/28 07:09:28;;;;;;;6.40;1.08;;;;;;;17.06;83.08;101674.38;5055213;27;97244;-27
2023/09/28 07:11:54;;;;;;;8.60;1.25;;;;;;;17.11;82.58;101693.19;5054742;27;96467;-27
2023/09/28 07:14:19;;;;;;;7.43;0.98;;;;;;;17.11;82.78;101690.47;5036417;27;96775;-26
2023/09/28 07:16:44;;;;;;;8.77;1.27;;;;;;;17.09;82.44;101686.97;5054026;27;98068;-26
2023/09/28 07:19:10;;;;;;;5.38;1.55;;;;;;;17.16;81.98;101691.00;5054423;27;97774;-27
2023/09/28 07:21:36;;;;;;;10.57;1.55;;;;;;;17.16;82.17;101696.47;5054704;27;96479;-27
2023/09/28 07:24:02;;;;;;;9.70;1.55;;;;;;;17.25;82.18;101706.72;5036072;27;96810;-26
2023/09/28 07:26:27;;;;;;;4.57;1.15;;;;;;;17.31;82.76;101716.34;5035898;27;100980;-27
2023/09/28 07:28:54;;;;;;;7.60;1.08;;;;;;;17.32;81.94;101718.94;5035950;27;99799;-26
2023/09/28 07:31:21;;;;;;;15.95;1.70;;;;;;;17.31;82.41;101699.91;5036042;27;96639;-27
2023/09/28 07:33:48;;;;;;;4.95;0.88;;;;;;;17.36;82.53;101720.47;5054751;27;96738;-27
2023/09/28 07:36:14;;;;;;;8.68;1.90;;;;;;;17.40;81.94;101724.75;5054131;27;97966;-27
2023/09/28 07:38:40;;;;;;;8.52;1.90;;;;;;;17.38;82.21;101715.75;5035729;27;101154;-26
2023/09/28 07:41:05;;;;;;;5.78;1.33;;;;;;;17.45;82.01;101728.97;5053572;27;96606;-27
2023/09/28 07:43:30;;;;;;;6.32;1.42;;;;;;;17.43;81.88;101729.09;5054014;27;96885;-27
2023/09/28 07:45:56;;;;;;;7.53;1.60;;;;;;;17.50;81.83;101727.63;5053590;27;97390;-26
2023/09/28 07:48:22;;;;;;;10.75;1.20;;;;;;;17.49;81.63;101725.00;5053785;27;99091;-26
2023/09/28 07:50:47;;;;;;;4.50;1.05;;;;;;;17.47;81.48;101718.78;5053959;27;96632;-27
2023/09/28 07:53:12;;;;;;;9.45;1.52;;;;;;;17.52;81.42;101747.59;5054103;27;96874;-28
2023/09/28 07:55:38;;;;;;;4.35;1.10;;;;;;;17.50;81.43;101745.94;5054026;27;98022;-27
2023/09/28 07:58:03;;;;;;;8.07;1.70;;;;;;;17.59;81.26;101750.69;5054089;27;97850;-26
2023/09/28 08:00:29;;;;;;;7.00;1.27;;;;;;;17.60;81.54;101731.41;5054150;27;96613;-26
2023/09/28 08:02:55;;;;;;;16.02;1.95;;;;;;;17.68;81.64;101724.47;5052827;27;96799;-27
2023/09/28 08:05:21;;;;;;;3.20;1.20;;;;;;;17.73;80.73;101736.84;5034384;27;100819;-27
2023/09/28 08:07:48;;;;;;;11.75;1.63;;;;;;;17.78;80.84;101748.31;5035259;27;101776;-26
2023/09/28 08:10:14;;;;;;;3.15;1.00;;;;;;;17.82;81.00;101741.59;5053518;27;96683;-26
2023/09/28 08:12:39;;;;;;;6.13;1.58;;;;;;;17.89;80.54;101741.13;5035340;27;96969;-27
2023/09/28 08:15:05;;;;;;;10.13;1.25;;;;;;;17.98;80.04;101756.88;5053211;27;97860;-26
2023/09/28 08:17:33;;;;;;;6.60;1.20;;;;;;;17.95;79.80;101763.47;5053371;27;99268;-27
2023/09/28 08:20:02;;;;;;;7.20;1.63;;;;;;;17.98;80.36;101762.34;5034765;27;96747;-28
2023/09/28 08:22:27;;;;;;;3.75;0.95;;;;;;;17.94;79.32;101756.22;5035357;27;96965;-27
2023/09/28 08:24:53;;;;;;;6.60;1.40;;;;;;;17.95;79.56;101754.38;5053325;27;97326;-26
2023/09/28 08:27:18;;;;;;;8.32;1.23;;;;;;;17.98;79.58;101756.88;5052833;27;99636;-28
2023/09/28 08:29:44;;;;;;;8.80;1.40;;;;;;;18.01;79.11;101762.09;5051614;27;96797;-26
2023/09/28 08:32:09;;;;;;;4.97;1.17;;;;;;;18.08;79.66;101762.50;5053560;27;96748;-26
2023/09/28 08:34:35;;;;;;;4.13;1.25;;;;;;;18.11;79.26;101771.34;5053054;27;98841;-27
2023/09/28 08:37:03;;;;;;;7.10;1.15;;;;;;;18.13;79.28;101774.84;5051625;27;97993;-26
2023/09/28 08:39:30;;;;;;;6.55;1.50;;;;;;;18.14;78.83;101762.00;5034467;27;96561;-35
2023/09/28 08:41:58;;;;;;;6.97;1.58;;;;;;;18.09;78.54;101753.28;5052622;27;96881;-27
2023/09/28 08:44:28;;;;;;;7.90;1.58;;;;;;;18.13;79.15;101766.63;5034716;27;99972;-26
2023/09/28 08:47:00;;;;;;;5.28;1.17;;;;;;;18.14;78.52;101778.44;5053048;27;97296;-27
2023/09/28 08:49:27;;;;;;;9.05;1.73;;;;;;;18.15;78.24;101774.75;5034504;27;96800;-26
2023/09/28 08:51:54;;;;;;;10.73;1.35;;;;;;;18.27;77.89;101779.25;5053537;27;96763;-26
2023/09/28 08:54:22;;;;;;;6.93;1.52;;;;;;;18.35;77.82;101782.28;5033860;27;100257;-26
2023/09/28 08:56:48;;;;;;;8.82;1.25;;;;;;;18.41;77.16;101778.16;5034441;27;101754;-27
2023/09/28 08:59:16;;;;;;;11.65;1.50;;;;;;;18.47;76.96;101777.66;5034065;27;96694;-30
2023/09/28 09:01:42;;;;;;;11.73;2.05;;;;;;;18.50;76.54;101793.88;5034458;27;96893;-28
2023/09/28 09:04:09;;;;;;;10.40;1.35;;;;;;;18.49;77.12;101797.59;5052210;27;98152;-27
2023/09/28 09:06:34;;;;;;;4.28;1.05;;;;;;;18.57;76.64;101791.53;5052473;27;99052;-27
2023/09/28 09:09:03;;;;;;;8.40;1.17;;;;;;;18.58;76.57;101796.88;5052706;27;96639;-27
2023/09/28 09:11:30;;;;;;;8.77;1.70;;;;;;;18.56;76.89;101792.50;5053114;27;96747;-27
2023/09/28 09:13:55;;;;;;;3.72;1.33;;;;;;;18.58;76.38;101796.00;5033361;27;101052;-27
2023/09/28 09:16:25;;;;;;;10.50;1.35;;;;;;;18.62;76.88;101786.53;5052554;27;99500;-26
2023/09/28 09:18:55;;;;;;;5.53;1.40;;;;;;;18.60;77.15;101783.03;5033943;27;96730;-27
2023/09/28 09:21:24;;;;;;;5.85;0.90;;;;;;;18.57;76.50;101781.41;5034073;27;97028;-27
2023/09/28 09:24:03;;;;;;;6.97;1.13;;;;;;;18.68;76.88;101780.53;5033980;27;98777;-27
2023/09/28 09:26:36;;;;;;;10.05;1.65;;;;;;;18.75;76.50;101778.16;5052112;27;100377;-27
2023/09/28 09:29:03;;;;;;;9.27;1.65;;;;;;;18.86;75.95;101781.81;5034268;27;96591;-27
2023/09/28 09:31:30;;;;;;;5.97;1.40;;;;;;;18.94;76.14;101785.81;5034254;27;96822;-26
2023/09/28 09:33:56;;;;;;;11.20;1.63;;;;;;;18.98;75.63;101777.19;5033924;27;101025;-27
2023/09/28 09:36:21;;;;;;;7.70;1.20;;;;;;;19.05;75.19;101792.16;5034191;27;100727;-27
2023/09/28 09:38:50;;;;;;;5.65;1.33;;;;;;;19.01;75.86;101784.31;5052382;27;96479;-27
2023/09/28 09:41:16;;;;;;;7.70;1.73;;;;;;;18.98;74.82;101774.44;5033976;27;96812;-28
2023/09/28 09:43:41;;;;;;;12.98;1.48;;;;;;;19.12;75.18;101778.81;5051661;27;99282;-26
2023/09/28 09:46:09;;;;;;;9.75;1.35;;;;;;;19.10;74.98;101775.31;5051628;27;97361;-28
2023/09/28 09:48:39;;;;;;;7.63;1.70;;;;;;;19.20;74.22;101773.53;5052269;27;96500;-26
2023/09/28 09:51:09;;;;;;;7.22;1.50;;;;;;;19.20;74.74;101765.28;5034093;27;96706;-27
2023/09/28 09:53:38;;;;;;;11.10;1.77;;;;;;;19.21;74.37;101778.03;5033864;27;99622;-26
2023/09/28 09:56:04;;;;;;;10.52;1.63;;;;;;;19.13;75.10;101749.47;5033696;27;101046;-26
2023/09/28 09:58:39;;;;;;;8.63;1.17;;;;;;;19.29;75.03;101763.66;5033943;27;96791;-27
2023/09/28 10:01:16;;;;;;;4.40;1.23;;;;;;;19.14;74.75;101765.81;5052696;27;96617;-27
2023/09/28 10:03:50;;;;;;;8.60;1.77;;;;;;;19.19;74.81;101787.41;5051716;27;99340;-26
2023/09/28 10:06:18;;;;;;;8.63;1.67;;;;;;;19.10;74.39;101783.56;5033560;27;101200;-27
2023/09/28 10:08:45;;;;;;;3.97;0.90;;;;;;;19.04;74.05;101786.78;5051643;27;97090;-26
2023/09/28 10:11:12;;;;;;;7.88;1.55;;;;;;;18.84;74.07;101772.84;5052083;27;96762;-27
2023/09/28 10:13:38;;;;;;;8.02;1.17;;;;;;;18.95;74.89;101785.69;5033543;27;99123;-27
2023/09/28 10:16:05;;;;;;;9.00;1.67;;;;;;;18.93;75.47;101792.31;5033425;27;100945;-27
2023/09/28 10:18:34;;;;;;;8.48;1.85;;;;;;;18.98;75.15;101788.19;5033483;27;96598;-26
2023/09/28 10:21:00;;;;;;;3.97;1.17;;;;;;;19.00;75.04;101796.31;5033549;27;96814;-27
2023/09/28 10:23:26;;;;;;;6.25;1.60;;;;;;;19.03;74.60;101796.03;5033494;27;100896;-26
2023/09/28 10:26:02;;;;;;;9.63;1.13;;;;;;;19.14;74.93;101809.78;5052586;27;97315;-28
2023/09/28 10:28:28;;;;;;;5.30;1.02;;;;;;;19.07;74.92;101798.41;5055507;27;97404;-27
2023/09/28 10:31:07;;;;;;;4.57;1.48;;;;;;;19.03;74.45;101794.16;5055601;27;96769;-26
2023/09/28 10:33:33;;;;;;;3.53;0.85;;;;;;;19.00;75.08;101802.66;5054960;27;98006;-26
2023/09/28 10:36:12;;;;;;;6.85;0.98;;;;;;;18.93;74.47;101815.16;5036645;27;101620;-26
2023/09/28 10:38:41;;;;;;;7.07;1.25;;;;;;;18.86;74.74;101808.41;5036486;27;96977;-27
2023/09/28 10:41:06;;;;;;;8.18;1.48;;;;;;;18.89;75.11;101805.41;5036817;27;96590;-27
2023/09/28 10:43:33;;;;;;;8.77;1.02;;;;;;;18.93;75.21;101809.66;5055056;27;97383;-27
2023/09/28 10:46:07;;;;;;;3.95;1.05;;;;;;;18.96;74.74;101823.13;5054271;27;99156;-27
2023/09/28 10:48:39;;;;;;;7.10;1.35;;;;;;;18.99;74.86;101827.50;5055604;27;96688;-27
2023/09/28 10:51:12;;;;;;;8.30;1.75;;;;;;;18.97;74.91;101810.25;5037026;27;96898;-27
2023/09/28 10:53:39;;;;;;;7.22;1.42;;;;;;;18.99;74.70;101828.34;5054697;27;99494;-28
2023/09/28 10:56:06;;;;;;;8.00;1.63;;;;;;;19.01;74.35;101825.50;5054893;27;97837;-27
2023/09/28 10:58:34;;;;;;;7.22;1.23;;;;;;;19.01;74.35;101820.00;5036039;27;97045;-27
2023/09/28 11:01:04;;;;;;;6.35;1.40;;;;;;;18.96;74.24;101809.41;5036381;27;96926;-27
2023/09/28 11:03:31;;;;;;;8.75;2.08;;;;;;;19.07;74.27;101823.13;5036258;27;101263;-27
2023/09/28 11:05:57;;;;;;;6.32;1.58;;;;;;;19.06;74.13;101817.75;5036190;27;101118;-27
2023/09/28 11:08:23;;;;;;;8.98;1.45;;;;;;;19.12;74.39;101828.25;5036425;27;96562;-28
2023/09/28 11:10:49;;;;;;;6.45;1.30;;;;;;;19.08;74.10;101824.84;5054496;27;96765;-28
2023/09/28 11:13:15;;;;;;;6.22;1.55;;;;;;;19.03;74.10;101829.00;5054355;27;99671;-26
2023/09/28 11:15:41;;;;;;;10.93;2.03;;;;;;;19.01;74.02;101822.75;5054569;27;98890;-27
2023/09/28 11:18:06;;;;;;;5.10;1.27;;;;;;;19.11;74.34;101831.97;5054564;27;96529;-27
2023/09/28 11:20:32;;;;;;;11.68;1.50;;;;;;;19.14;73.41;101830.84;5055076;27;96675;-27
2023/09/28 11:22:58;;;;;;;7.07;1.38;;;;;;;19.16;73.61;101837.97;5053682;27;99408;-27